Main page
METAR-TAF:

METAR-TAF

Airports :

Oil platform

Ula, Norway

latitude: 59-06-39N, longitude: 2-50-45E, elevation: 0 m

Current weather observation

The report was made 25 minutes ago, at 04:50 UTC
Wind 23 kt from the West/Northwest
Temperature 9°C
Humidity 81%
Pressure 986 hPa
Visibility 10 km or more

METAR: ENLA 050450Z AUTO 29023KT 9999NDV BKN017/// BKN035/// BKN070/// 09/06 Q0986 W///S4

Time: 07:15 (05:15 UTC)


TAF: missing

Weather observations and forecasts of more than 4000 airports (METAR and TAF reports).

The available stations are represented by yellow and red dots on the map.

Hover mouse over dot to see the name of the station.

Then click to see weather observations and forecasts.

To change the map : click on the green buttons with a black cross to zoom in, on the green button with a dash to zoom out, or on the green arrows for adjacent maps.


METAR-TAF: